createdAt,value
2019-03-30T00:01:29.414Z,13.40
2019-03-30T00:03:31.642Z,11.70
2019-03-30T00:05:33.845Z,11.93
2019-03-30T00:07:36.073Z,12.93
2019-03-30T00:09:38.605Z,14.53
2019-03-30T00:11:41.069Z,15.77
2019-03-30T00:13:43.590Z,15.10
2019-03-30T00:15:45.814Z,16.00
2019-03-30T00:17:48.045Z,15.40
2019-03-30T00:19:50.550Z,15.10
2019-03-30T00:21:52.766Z,14.97
2019-03-30T00:23:54.994Z,14.00
2019-03-30T00:25:57.209Z,16.50
2019-03-30T00:27:59.438Z,15.33
2019-03-30T00:30:01.677Z,16.27
2019-03-30T00:32:03.989Z,11.83
2019-03-30T00:34:06.223Z,9.70
2019-03-30T00:36:08.442Z,12.30
2019-03-30T00:38:10.945Z,12.50
2019-03-30T00:40:13.167Z,11.50
2019-03-30T00:42:15.387Z,12.77
2019-03-30T00:44:17.619Z,11.60
2019-03-30T00:46:19.829Z,10.50
2019-03-30T00:48:22.060Z,12.27
2019-03-30T00:50:24.681Z,18.43
2019-03-30T00:52:26.894Z,15.00
2019-03-30T00:54:29.128Z,13.37
2019-03-30T00:56:31.366Z,16.97
2019-03-30T00:58:33.590Z,17.57
2019-03-30T01:00:35.813Z,15.70
2019-03-30T01:02:38.262Z,16.87
2019-03-30T01:04:40.484Z,16.37
2019-03-30T01:06:42.692Z,15.67
2019-03-30T01:08:45.455Z,13.30
2019-03-30T01:10:47.920Z,11.23
2019-03-30T01:12:50.140Z,11.87
2019-03-30T01:14:52.366Z,13.10
2019-03-30T01:16:54.579Z,14.33
2019-03-30T01:18:57.034Z,16.57
2019-03-30T01:20:59.257Z,17.00
2019-03-30T01:23:01.478Z,18.40
2019-03-30T01:25:04.818Z,17.37
2019-03-30T01:27:07.381Z,15.63
2019-03-30T01:29:09.614Z,9.90
2019-03-30T01:31:11.820Z,11.03
2019-03-30T01:33:14.024Z,10.47
2019-03-30T01:35:16.338Z,12.30
2019-03-30T01:37:18.933Z,13.93
2019-03-30T01:39:21.158Z,14.45
2019-03-30T01:41:23.397Z,14.37
2019-03-30T01:43:25.623Z,13.27
2019-03-30T01:45:27.949Z,12.90
2019-03-30T01:47:30.160Z,14.50
2019-03-30T01:49:32.394Z,15.33
2019-03-30T01:51:34.617Z,18.07
2019-03-30T01:53:36.837Z,15.87
2019-03-30T01:55:39.061Z,11.07
2019-03-30T01:57:41.600Z,11.00
2019-03-30T01:59:43.830Z,15.77
2019-03-30T02:01:46.050Z,12.17
2019-03-30T02:03:48.282Z,13.47
2019-03-30T02:05:50.502Z,15.90
2019-03-30T02:07:52.741Z,17.10
2019-03-30T02:09:54.971Z,19.50
2019-03-30T02:11:57.189Z,17.57
2019-03-30T02:13:59.425Z,20.40
2019-03-30T02:16:01.649Z,18.70
2019-03-30T02:18:04.022Z,18.07
2019-03-30T02:20:06.674Z,17.80
2019-03-30T02:22:08.889Z,13.90
2019-03-30T02:24:11.120Z,14.93
2019-03-30T02:26:13.336Z,14.50
2019-03-30T02:28:15.563Z,13.23
2019-03-30T02:30:17.781Z,13.00
2019-03-30T02:32:20.401Z,14.90
2019-03-30T02:34:22.624Z,12.90
2019-03-30T02:36:24.832Z,14.30
2019-03-30T02:38:27.088Z,14.50
2019-03-30T02:40:29.316Z,12.37
2019-03-30T02:42:31.537Z,9.37
2019-03-30T02:44:33.797Z,11.20
2019-03-30T02:46:36.009Z,14.90
2019-03-30T02:48:38.231Z,13.20
2019-03-30T02:50:49.559Z,13.67
2019-03-30T02:52:44.573Z,13.63
2019-03-30T02:54:46.804Z,16.57
2019-03-30T02:56:49.090Z,15.10
2019-03-30T02:58:51.346Z,14.90
2019-03-30T03:00:53.813Z,15.77
2019-03-30T03:02:56.147Z,15.47
2019-03-30T03:04:58.468Z,16.30
2019-03-30T03:07:00.686Z,12.53
2019-03-30T03:09:05.977Z,11.53
2019-03-30T03:11:08.229Z,14.63
2019-03-30T03:13:10.552Z,15.40
2019-03-30T03:15:12.857Z,14.23
2019-03-30T03:17:15.091Z,13.50
2019-03-30T03:19:17.310Z,13.00
2019-03-30T03:21:19.542Z,12.07
2019-03-30T03:23:22.086Z,9.77
2019-03-30T03:25:24.322Z,4.83
2019-03-30T03:27:26.542Z,8.13
2019-03-30T03:29:28.759Z,9.47
2019-03-30T03:31:30.992Z,10.23
2019-03-30T03:33:33.523Z,10.53
2019-03-30T03:35:35.751Z,11.23
2019-03-30T03:37:45.325Z,10.90
2019-03-30T03:39:42.099Z,12.00
2019-03-30T03:41:44.330Z,7.53
2019-03-30T03:43:47.144Z,8.60
2019-03-30T03:45:49.475Z,9.77
2019-03-30T03:47:51.694Z,9.37
2019-03-30T03:49:53.910Z,9.90
2019-03-30T03:51:56.375Z,10.23
2019-03-30T03:53:58.695Z,9.50
2019-03-30T03:56:01.204Z,10.80
2019-03-30T03:58:04.288Z,10.20
2019-03-30T04:00:07.015Z,9.80
2019-03-30T04:02:09.661Z,10.23
2019-03-30T04:04:12.218Z,9.80
2019-03-30T04:06:14.757Z,15.57
2019-03-30T04:08:17.266Z,15.10
2019-03-30T04:10:19.738Z,11.40
2019-03-30T04:12:22.922Z,10.40
2019-03-30T04:14:25.178Z,12.80
2019-03-30T04:16:27.503Z,15.00
2019-03-30T04:18:29.750Z,15.20
2019-03-30T04:20:31.977Z,9.63
2019-03-30T04:22:34.497Z,4.87
2019-03-30T04:24:37.039Z,5.97
2019-03-30T04:26:39.261Z,10.40
2019-03-30T04:28:41.495Z,7.93
2019-03-30T04:30:43.721Z,7.07
2019-03-30T04:32:45.939Z,5.60
2019-03-30T04:34:48.462Z,7.93
2019-03-30T04:36:50.694Z,10.73
2019-03-30T04:38:52.913Z,10.77
2019-03-30T04:40:55.145Z,13.10
2019-03-30T04:42:57.361Z,11.60
2019-03-30T04:44:59.590Z,12.60
2019-03-30T04:47:01.826Z,13.90
2019-03-30T04:49:04.045Z,11.23
2019-03-30T04:51:06.285Z,11.70
2019-03-30T04:53:08.866Z,12.77
2019-03-30T04:55:11.086Z,12.47
2019-03-30T04:57:13.333Z,10.03
2019-03-30T04:59:15.866Z,11.77
2019-03-30T05:01:18.093Z,10.43
2019-03-30T05:03:20.313Z,12.17
2019-03-30T05:05:22.875Z,11.93
2019-03-30T05:07:25.097Z,12.87
2019-03-30T05:09:27.318Z,12.70
2019-03-30T05:11:29.549Z,13.57
2019-03-30T05:13:34.085Z,13.30
2019-03-30T05:15:36.306Z,9.30
2019-03-30T05:17:47.398Z,10.37
2019-03-30T05:19:42.645Z,11.03
2019-03-30T05:21:44.868Z,12.87
2019-03-30T05:23:47.357Z,11.90
2019-03-30T05:25:49.569Z,12.80
2019-03-30T05:27:51.797Z,12.03
2019-03-30T05:29:54.382Z,12.87
2019-03-30T05:31:56.936Z,13.77
2019-03-30T05:33:59.163Z,13.33
2019-03-30T05:36:01.401Z,12.17
2019-03-30T05:38:04.043Z,10.73
2019-03-30T05:40:06.890Z,10.17
2019-03-30T05:42:09.104Z,11.37
2019-03-30T05:44:11.318Z,10.93
2019-03-30T05:46:13.530Z,11.90
2019-03-30T05:48:15.757Z,11.73
2019-03-30T05:50:17.977Z,10.30
2019-03-30T05:52:26.298Z,9.07
2019-03-30T05:54:24.348Z,11.63
2019-03-30T05:56:26.578Z,11.50
2019-03-30T05:58:28.814Z,11.90
2019-03-30T06:00:31.033Z,11.10
2019-03-30T06:02:33.268Z,13.97
2019-03-30T06:04:35.484Z,14.40
2019-03-30T06:06:38.226Z,13.80
2019-03-30T06:08:40.792Z,14.67
2019-03-30T06:10:43.021Z,15.57
2019-03-30T06:12:45.242Z,15.13
2019-03-30T06:14:47.706Z,14.87
2019-03-30T06:16:49.926Z,15.90
2019-03-30T06:18:52.155Z,14.30
2019-03-30T06:20:54.386Z,14.90
2019-03-30T06:22:56.617Z,14.63
2019-03-30T06:24:58.836Z,16.83
2019-03-30T06:27:01.087Z,16.60
2019-03-30T06:29:03.401Z,16.10
2019-03-30T06:31:05.626Z,15.80
2019-03-30T06:33:07.862Z,15.60
2019-03-30T06:35:10.092Z,16.60
2019-03-30T06:37:12.317Z,15.43
2019-03-30T06:39:14.542Z,16.10
2019-03-30T06:41:17.404Z,16.67
2019-03-30T06:43:19.621Z,15.93
2019-03-30T06:45:22.097Z,17.30
2019-03-30T06:47:24.316Z,17.53
2019-03-30T06:49:26.542Z,16.87
2019-03-30T06:51:28.749Z,17.50
2019-03-30T06:53:30.985Z,17.50
2019-03-30T06:55:33.201Z,19.98
2019-03-30T06:57:35.427Z,19.87
2019-03-30T06:59:37.903Z,17.87
2019-03-30T07:01:40.428Z,17.67
2019-03-30T07:03:42.658Z,17.50
2019-03-30T07:05:45.174Z,16.57
2019-03-30T07:07:47.398Z,16.60
2019-03-30T07:09:51.512Z,16.73
2019-03-30T07:11:54.023Z,16.60
2019-03-30T07:13:57.310Z,15.70
2019-03-30T07:16:00.294Z,16.63
2019-03-30T07:18:02.516Z,16.33
2019-03-30T07:20:06.659Z,16.10
2019-03-30T07:22:08.886Z,16.40
2019-03-30T07:24:11.408Z,17.30
2019-03-30T07:26:13.626Z,16.10
2019-03-30T07:28:15.874Z,15.47
2019-03-30T07:30:18.094Z,16.40
2019-03-30T07:32:20.627Z,17.20
2019-03-30T07:34:22.858Z,17.60
2019-03-30T07:36:25.342Z,14.47
2019-03-30T07:38:27.572Z,16.10
2019-03-30T07:40:29.795Z,15.83
2019-03-30T07:42:32.003Z,15.97
2019-03-30T07:44:34.230Z,15.73
2019-03-30T07:46:36.438Z,16.60
2019-03-30T07:48:38.670Z,15.27
2019-03-30T07:50:40.890Z,14.30
2019-03-30T07:52:43.438Z,17.03
2019-03-30T07:54:45.666Z,15.80
2019-03-30T07:56:47.897Z,15.30
2019-03-30T07:58:50.124Z,15.13
2019-03-30T08:00:52.346Z,14.90
2019-03-30T08:02:54.663Z,15.90
2019-03-30T08:04:56.924Z,16.40
2019-03-30T08:06:59.400Z,16.93
2019-03-30T08:09:02.652Z,17.53
2019-03-30T08:11:04.867Z,16.23
2019-03-30T08:13:07.081Z,15.20
2019-03-30T08:15:09.388Z,15.77
2019-03-30T08:17:11.598Z,15.67
2019-03-30T08:19:14.228Z,13.87
2019-03-30T08:21:16.726Z,14.60
2019-03-30T08:23:19.033Z,15.50
2019-03-30T08:25:21.250Z,13.70
2019-03-30T08:27:23.462Z,16.13
2019-03-30T08:29:25.985Z,15.60
2019-03-30T08:31:28.281Z,15.43
2019-03-30T08:33:30.741Z,15.63
2019-03-30T08:35:32.956Z,16.00
2019-03-30T08:37:35.316Z,13.77
2019-03-30T08:39:37.537Z,16.80
2019-03-30T08:41:39.738Z,17.20
2019-03-30T08:43:41.972Z,15.40
2019-03-30T08:45:44.178Z,15.77
2019-03-30T08:47:46.395Z,16.30
2019-03-30T08:49:48.614Z,16.40
2019-03-30T08:51:50.830Z,16.48
2019-03-30T08:53:54.867Z,17.00
2019-03-30T08:55:57.182Z,16.47
2019-03-30T08:57:59.673Z,15.30
2019-03-30T09:00:01.894Z,17.10
2019-03-30T09:02:04.130Z,16.43
2019-03-30T09:04:06.353Z,16.47
2019-03-30T09:06:09.529Z,18.20
2019-03-30T09:08:11.774Z,16.67
2019-03-30T09:10:13.996Z,15.77
2019-03-30T09:12:16.218Z,17.23
2019-03-30T09:14:18.466Z,16.97
2019-03-30T09:16:20.737Z,14.97
2019-03-30T09:18:23.054Z,15.10
2019-03-30T09:20:25.287Z,17.20
2019-03-30T09:22:27.501Z,17.60
2019-03-30T09:24:29.825Z,17.00
2019-03-30T09:26:32.054Z,17.17
2019-03-30T09:28:34.558Z,18.40
2019-03-30T09:30:37.129Z,17.17
2019-03-30T09:32:39.350Z,16.50
2019-03-30T09:34:41.582Z,18.67
2019-03-30T09:36:43.929Z,16.37
2019-03-30T09:38:46.314Z,18.07
2019-03-30T09:40:48.530Z,16.57
2019-03-30T09:42:50.740Z,17.00
2019-03-30T09:44:52.969Z,17.90
2019-03-30T09:46:55.177Z,18.00
2019-03-30T09:48:57.401Z,17.60
2019-03-30T09:50:59.614Z,17.70
2019-03-30T09:53:02.161Z,18.50
2019-03-30T09:55:04.722Z,17.60
2019-03-30T09:57:06.944Z,17.77
2019-03-30T09:59:09.257Z,18.27
2019-03-30T10:01:11.481Z,17.40
2019-03-30T10:03:13.696Z,16.03
2019-03-30T10:05:15.900Z,16.97
2019-03-30T10:07:18.137Z,18.23
2019-03-30T10:09:20.697Z,18.73
2019-03-30T10:11:22.905Z,19.63
2019-03-30T10:13:25.117Z,17.10
2019-03-30T10:15:27.348Z,20.53
2019-03-30T10:17:29.566Z,17.67
2019-03-30T10:19:31.795Z,18.97
2019-03-30T10:21:34.102Z,19.43
2019-03-30T10:23:36.318Z,19.07
2019-03-30T10:25:38.544Z,18.13
2019-03-30T10:27:40.747Z,17.37
2019-03-30T10:29:43.027Z,18.20
2019-03-30T10:31:45.530Z,19.57
2019-03-30T10:33:47.745Z,19.10
2019-03-30T10:35:49.968Z,19.70
2019-03-30T10:37:52.190Z,18.07
2019-03-30T10:39:54.420Z,18.97
2019-03-30T10:41:56.634Z,19.90
2019-03-30T10:43:58.854Z,19.30
2019-03-30T10:46:01.074Z,19.10
2019-03-30T10:48:04.377Z,18.73
2019-03-30T10:50:06.868Z,18.80
2019-03-30T10:52:09.322Z,19.33
2019-03-30T10:54:11.537Z,18.33
2019-03-30T10:56:13.756Z,20.33
2019-03-30T10:58:15.953Z,20.47
2019-03-30T11:00:33.078Z,18.10
2019-03-30T11:02:35.289Z,20.00
2019-03-30T11:04:37.844Z,19.33
2019-03-30T11:06:40.642Z,20.27
2019-03-30T11:08:42.853Z,19.43
2019-03-30T11:10:45.378Z,18.33
2019-03-30T11:12:47.598Z,16.80
2019-03-30T11:14:50.119Z,18.00
2019-03-30T11:16:52.338Z,17.47
2019-03-30T11:18:54.554Z,16.97
2019-03-30T11:20:56.777Z,16.67
2019-03-30T11:22:59.098Z,17.43
2019-03-30T11:25:07.643Z,16.43
2019-03-30T11:27:05.437Z,15.50
2019-03-30T11:29:07.675Z,17.23
2019-03-30T11:31:10.184Z,16.53
2019-03-30T11:33:12.413Z,16.83
2019-03-30T11:35:14.630Z,17.13
2019-03-30T11:37:16.850Z,16.70
2019-03-30T11:39:19.073Z,17.47
2019-03-30T11:41:24.721Z,15.87
2019-03-30T11:43:25.408Z,15.87
2019-03-30T11:45:27.634Z,16.03
2019-03-30T11:47:30.168Z,14.50
2019-03-30T11:49:32.387Z,15.80
2019-03-30T11:51:34.585Z,16.20
2019-03-30T11:53:36.814Z,15.50
2019-03-30T11:55:39.042Z,15.80
2019-03-30T11:57:41.602Z,15.43
2019-03-30T11:59:44.190Z,17.07
2019-03-30T12:01:46.401Z,16.23
2019-03-30T12:03:48.608Z,15.33
2019-03-30T12:05:51.172Z,16.20
2019-03-30T12:07:53.397Z,15.98
2019-03-30T12:09:55.856Z,15.93
2019-03-30T12:11:58.075Z,16.97
2019-03-30T12:14:00.286Z,16.50
2019-03-30T12:16:02.509Z,16.00
2019-03-30T12:18:04.741Z,15.30
2019-03-30T12:20:07.077Z,16.07
2019-03-30T12:22:09.289Z,16.90
2019-03-30T12:24:11.502Z,17.30
2019-03-30T12:26:13.727Z,17.25
2019-03-30T12:28:15.938Z,15.43
2019-03-30T12:30:18.209Z,14.93
2019-03-30T12:32:20.422Z,14.90
2019-03-30T12:34:22.918Z,15.90
2019-03-30T12:36:25.146Z,14.83
2019-03-30T12:38:27.363Z,15.43
2019-03-30T12:40:29.586Z,14.27
2019-03-30T12:42:31.812Z,15.10
2019-03-30T12:44:34.146Z,14.70
2019-03-30T12:46:36.349Z,14.37
2019-03-30T12:48:38.564Z,14.20
2019-03-30T12:50:40.790Z,12.90
2019-03-30T12:52:43.004Z,14.50
2019-03-30T12:54:45.242Z,14.53
2019-03-30T12:56:47.469Z,13.77
2019-03-30T12:58:49.684Z,14.33
2019-03-30T13:00:52.162Z,13.90
2019-03-30T13:02:54.569Z,14.10
2019-03-30T13:04:57.087Z,14.17
2019-03-30T13:06:59.302Z,15.37
2019-03-30T13:09:01.524Z,14.80
2019-03-30T13:11:06.022Z,14.30
2019-03-30T13:13:08.233Z,14.33
2019-03-30T13:15:10.792Z,14.70
2019-03-30T13:17:13.005Z,14.40
2019-03-30T13:19:15.217Z,15.20
2019-03-30T13:21:17.501Z,15.20
2019-03-30T13:23:20.052Z,15.77
2019-03-30T13:25:22.279Z,14.77
2019-03-30T13:27:24.806Z,14.90
2019-03-30T13:29:27.022Z,15.13
2019-03-30T13:31:29.246Z,14.20
2019-03-30T13:33:31.458Z,13.77
2019-03-30T13:35:33.680Z,14.85
2019-03-30T13:37:35.901Z,15.30
2019-03-30T13:39:38.206Z,14.67
2019-03-30T13:41:40.830Z,16.20
2019-03-30T13:43:43.082Z,15.70
2019-03-30T13:45:45.289Z,16.40
2019-03-30T13:47:47.486Z,15.00
2019-03-30T13:49:49.701Z,15.40
2019-03-30T13:51:51.926Z,15.90
2019-03-30T13:53:54.146Z,14.97
2019-03-30T13:55:56.390Z,15.00
2019-03-30T13:57:58.602Z,13.93
2019-03-30T14:00:01.160Z,15.00
2019-03-30T14:02:03.381Z,15.23
2019-03-30T14:04:05.597Z,14.73
2019-03-30T14:06:07.821Z,15.10
2019-03-30T14:08:10.042Z,14.17
2019-03-30T14:10:13.100Z,14.40
2019-03-30T14:12:15.517Z,13.23
2019-03-30T14:14:17.733Z,13.63
2019-03-30T14:16:19.958Z,13.50
2019-03-30T14:18:22.174Z,14.10
2019-03-30T14:20:24.740Z,13.60
2019-03-30T14:22:26.974Z,13.10
2019-03-30T14:24:29.190Z,13.23
2019-03-30T14:26:32.004Z,13.67
2019-03-30T14:28:34.697Z,14.90
2019-03-30T14:30:37.457Z,13.07
2019-03-30T14:32:40.108Z,13.80
2019-03-30T14:34:42.585Z,14.50
2019-03-30T14:36:45.166Z,14.43
2019-03-30T14:38:48.144Z,13.80
2019-03-30T14:40:51.964Z,14.37
2019-03-30T14:42:55.032Z,14.37
2019-03-30T14:44:57.669Z,13.93
2019-03-30T14:47:00.117Z,14.90
2019-03-30T14:49:02.670Z,15.67
2019-03-30T14:51:05.189Z,13.73
2019-03-30T14:53:07.410Z,14.00
2019-03-30T14:55:09.716Z,15.40
2019-03-30T14:57:12.014Z,14.20
2019-03-30T14:59:14.509Z,14.07
2019-03-30T15:01:16.946Z,13.70
2019-03-30T15:03:19.426Z,15.53
2019-03-30T15:05:21.638Z,14.33
2019-03-30T15:07:23.866Z,15.60
2019-03-30T15:09:26.086Z,15.93
2019-03-30T15:11:28.313Z,15.40
2019-03-30T15:13:30.533Z,16.30
2019-03-30T15:15:32.740Z,16.40
2019-03-30T15:17:34.969Z,16.97
2019-03-30T15:19:37.428Z,15.50
2019-03-30T15:21:39.660Z,17.67
2019-03-30T15:23:41.876Z,17.23
2019-03-30T15:25:44.097Z,16.35
2019-03-30T15:27:46.315Z,16.37
2019-03-30T15:29:48.525Z,17.60
2019-03-30T15:31:50.755Z,16.40
2019-03-30T15:33:53.466Z,16.50
2019-03-30T15:35:56.075Z,16.80
2019-03-30T15:37:58.302Z,17.53
2019-03-30T15:40:00.544Z,17.83
2019-03-30T15:42:02.930Z,17.77
2019-03-30T15:44:05.207Z,17.57
2019-03-30T15:46:07.450Z,17.00
2019-03-30T15:48:09.674Z,19.80
2019-03-30T15:50:11.951Z,18.73
2019-03-30T15:52:14.529Z,27.77
2019-03-30T15:54:17.166Z,18.80
2019-03-30T15:56:19.413Z,19.50
2019-03-30T15:58:21.638Z,17.10
2019-03-30T16:00:23.849Z,18.60
2019-03-30T16:02:26.074Z,19.83
2019-03-30T16:04:28.290Z,20.63
2019-03-30T16:06:30.492Z,22.00
2019-03-30T16:08:32.712Z,18.07
2019-03-30T16:10:34.921Z,17.27
2019-03-30T16:12:37.148Z,17.03
2019-03-30T16:14:39.358Z,18.07
2019-03-30T16:16:41.568Z,18.03
2019-03-30T16:18:43.799Z,18.27
2019-03-30T16:20:46.013Z,17.83
2019-03-30T16:22:48.235Z,18.50
2019-03-30T16:24:50.450Z,17.83
2019-03-30T16:26:52.663Z,18.20
2019-03-30T16:28:54.872Z,19.77
2019-03-30T16:30:57.087Z,18.00
2019-03-30T16:32:59.313Z,18.47
2019-03-30T16:35:01.834Z,16.80
2019-03-30T16:37:04.054Z,16.90
2019-03-30T16:39:06.533Z,17.10
2019-03-30T16:41:09.006Z,16.83
2019-03-30T16:43:11.224Z,15.63
2019-03-30T16:45:13.442Z,16.30
2019-03-30T16:47:15.698Z,16.80
2019-03-30T16:49:17.913Z,15.40
2019-03-30T16:51:20.144Z,16.27
2019-03-30T16:53:22.377Z,14.77
2019-03-30T16:55:24.591Z,15.00
2019-03-30T16:57:27.670Z,14.77
2019-03-30T16:59:30.147Z,13.90
2019-03-30T17:01:32.365Z,14.60
2019-03-30T17:03:34.579Z,15.20
2019-03-30T17:05:36.797Z,15.53
2019-03-30T17:07:39.041Z,15.17
2019-03-30T17:09:41.558Z,15.53
2019-03-30T17:11:43.876Z,14.03
2019-03-30T17:13:46.100Z,15.03
2019-03-30T17:15:48.338Z,13.37
2019-03-30T17:17:50.569Z,14.57
2019-03-30T17:19:52.786Z,14.80
2019-03-30T17:21:55.027Z,14.20
2019-03-30T17:23:57.298Z,14.53
2019-03-30T17:25:59.538Z,13.70
2019-03-30T17:28:01.776Z,13.40
2019-03-30T17:30:04.822Z,13.93
2019-03-30T17:32:07.137Z,14.90
2019-03-30T17:34:09.370Z,15.53
2019-03-30T17:36:11.582Z,14.37
2019-03-30T17:38:14.038Z,14.17
2019-03-30T17:40:16.270Z,14.10
2019-03-30T17:42:18.481Z,14.20
2019-03-30T17:44:20.716Z,14.50
2019-03-30T17:46:22.930Z,15.43
2019-03-30T17:48:25.532Z,16.37
2019-03-30T17:50:27.755Z,15.80
2019-03-30T17:52:29.952Z,16.57
2019-03-30T17:54:32.177Z,16.10
2019-03-30T17:56:34.400Z,15.53
2019-03-30T17:58:36.873Z,16.03
2019-03-30T18:00:39.092Z,16.07
2019-03-30T18:02:41.300Z,16.00
2019-03-30T18:04:43.537Z,17.57
2019-03-30T18:06:46.002Z,15.60
2019-03-30T18:08:48.234Z,17.03
2019-03-30T18:10:50.446Z,17.10
2019-03-30T18:12:53.025Z,16.70
2019-03-30T18:14:55.529Z,16.40
2019-03-30T18:16:58.393Z,15.63
2019-03-30T18:19:00.612Z,17.17
2019-03-30T18:21:02.831Z,16.43
2019-03-30T18:23:05.319Z,17.63
2019-03-30T18:25:07.553Z,17.00
2019-03-30T18:27:10.070Z,17.17
2019-03-30T18:29:12.297Z,16.50
2019-03-30T18:31:14.509Z,16.60
2019-03-30T18:33:16.729Z,18.17
2019-03-30T18:35:18.946Z,18.00
2019-03-30T18:37:21.158Z,17.97
2019-03-30T18:39:23.732Z,19.40
2019-03-30T18:41:26.405Z,18.17
2019-03-30T18:43:48.537Z,18.43
2019-03-30T18:45:51.061Z,18.30
2019-03-30T18:47:53.976Z,17.53
2019-03-30T18:49:56.209Z,17.50
2019-03-30T18:51:58.429Z,18.70
2019-03-30T18:54:00.655Z,18.40
2019-03-30T18:56:02.878Z,19.50
2019-03-30T18:58:05.088Z,19.70
2019-03-30T19:00:07.377Z,18.30
2019-03-30T19:02:09.986Z,18.93
2019-03-30T19:04:12.213Z,18.13
2019-03-30T19:06:14.423Z,17.07
2019-03-30T19:08:16.637Z,17.97
2019-03-30T19:10:18.869Z,18.57
2019-03-30T19:12:21.080Z,18.97
2019-03-30T19:14:23.352Z,17.37
2019-03-30T19:16:25.557Z,17.60
2019-03-30T19:18:27.865Z,18.50
2019-03-30T19:20:30.076Z,18.10
2019-03-30T19:22:32.293Z,17.43
2019-03-30T19:24:34.530Z,18.47
2019-03-30T19:26:37.083Z,19.53
2019-03-30T19:28:39.276Z,18.97
2019-03-30T19:30:42.335Z,17.97
2019-03-30T19:32:45.386Z,18.90
2019-03-30T19:34:47.604Z,18.20
2019-03-30T19:36:49.886Z,17.37
2019-03-30T19:38:52.745Z,18.20
2019-03-30T19:40:54.965Z,19.27
2019-03-30T19:42:57.182Z,18.03
2019-03-30T19:44:59.401Z,17.70
2019-03-30T19:47:01.609Z,18.40
2019-03-30T19:49:04.124Z,18.73
2019-03-30T19:51:06.340Z,18.43
2019-03-30T19:53:08.566Z,17.90
2019-03-30T19:55:10.843Z,18.30
2019-03-30T19:57:13.066Z,17.80
2019-03-30T19:59:15.291Z,19.90
2019-03-30T20:01:17.505Z,17.90
2019-03-30T20:03:19.725Z,18.80
2019-03-30T20:05:21.949Z,18.07
2019-03-30T20:07:24.166Z,18.37
2019-03-30T20:09:26.402Z,17.97
2019-03-30T20:14:00.205Z,17.97
2019-03-30T20:16:02.885Z,17.13
2019-03-30T20:18:05.102Z,19.23
2019-03-30T20:20:08.044Z,18.40
2019-03-30T20:22:10.520Z,19.40
2019-03-30T20:24:12.735Z,19.40
2019-03-30T20:26:14.989Z,19.63
2019-03-30T20:28:17.188Z,20.60
2019-03-30T20:30:19.421Z,21.33
2019-03-30T20:32:21.637Z,21.23
2019-03-30T20:34:23.857Z,22.10
2019-03-30T20:36:26.129Z,22.27
2019-03-30T20:38:28.726Z,21.57
2019-03-30T20:40:30.949Z,21.90
2019-03-30T20:42:33.156Z,24.10
2019-03-30T20:44:35.380Z,24.50
2019-03-30T20:46:37.601Z,24.27
2019-03-30T20:48:39.828Z,28.53
2019-03-30T20:50:42.351Z,34.37
2019-03-30T20:52:44.631Z,29.50
2019-03-30T20:54:46.873Z,36.73
2019-03-30T20:56:49.088Z,37.33
2019-03-30T20:58:51.305Z,39.20
2019-03-30T21:00:53.533Z,40.80
2019-03-30T21:02:55.818Z,41.67
2019-03-30T21:04:58.394Z,40.43
2019-03-30T21:07:00.613Z,40.83
2019-03-30T21:09:05.538Z,42.07
2019-03-30T21:11:07.775Z,42.40
2019-03-30T21:13:09.997Z,43.53
2019-03-30T21:15:12.233Z,36.13
2019-03-30T21:17:14.451Z,31.90
2019-03-30T21:19:16.662Z,31.93
2019-03-30T21:21:18.889Z,31.07
2019-03-30T21:23:21.102Z,29.00
2019-03-30T21:25:23.339Z,27.40
2019-03-30T21:27:25.570Z,28.80
2019-03-30T21:29:27.780Z,29.10
2019-03-30T21:31:30.011Z,30.90
2019-03-30T21:33:32.291Z,30.67
2019-03-30T21:35:34.545Z,33.43
2019-03-30T21:37:36.758Z,33.33
2019-03-30T21:39:38.978Z,34.67
2019-03-30T21:41:41.201Z,34.00
2019-03-30T21:43:43.419Z,34.20
2019-03-30T21:45:45.637Z,35.97
2019-03-30T21:47:47.919Z,35.20
2019-03-30T21:49:50.121Z,36.87
2019-03-30T21:51:52.365Z,36.77
2019-03-30T21:53:54.685Z,32.73
2019-03-30T21:55:56.921Z,33.83
2019-03-30T21:57:59.480Z,30.43
2019-03-30T22:00:09.929Z,27.80
2019-03-30T22:02:05.834Z,30.73
2019-03-30T22:04:08.048Z,27.60
2019-03-30T22:06:10.277Z,28.33
2019-03-30T22:08:12.489Z,31.40
2019-03-30T22:10:19.045Z,32.00
2019-03-30T22:12:21.279Z,34.17
2019-03-30T22:14:23.499Z,33.57
2019-03-30T22:16:25.735Z,34.27
2019-03-30T22:18:27.946Z,34.53
2019-03-30T22:20:30.153Z,30.57
2019-03-30T22:22:32.369Z,31.70
2019-03-30T22:24:34.590Z,31.50
2019-03-30T22:26:36.819Z,34.33
2019-03-30T22:28:39.033Z,32.90
2019-03-30T22:30:41.244Z,32.97
2019-03-30T22:32:43.464Z,32.90
2019-03-30T22:34:45.693Z,32.27
2019-03-30T22:36:47.900Z,33.03
2019-03-30T22:38:50.133Z,31.80
2019-03-30T22:40:52.441Z,30.50
2019-03-30T22:42:54.661Z,31.57
2019-03-30T22:44:56.878Z,34.83
2019-03-30T22:46:59.097Z,35.70
2019-03-30T22:49:01.308Z,34.57
2019-03-30T22:51:03.529Z,36.60
2019-03-30T22:53:05.750Z,34.77
2019-03-30T22:55:07.977Z,34.00
2019-03-30T22:57:10.230Z,33.60
2019-03-30T22:59:12.443Z,33.17
2019-03-30T23:01:17.206Z,32.83
2019-03-30T23:03:19.409Z,32.57
2019-03-30T23:05:21.616Z,31.97
2019-03-30T23:07:23.841Z,35.30
2019-03-30T23:09:26.054Z,35.47
2019-03-30T23:11:28.633Z,35.53
2019-03-30T23:13:30.854Z,28.10
2019-03-30T23:15:33.402Z,32.13
2019-03-30T23:17:35.628Z,28.93
2019-03-30T23:19:38.141Z,29.07
2019-03-30T23:21:40.621Z,26.93
2019-03-30T23:23:43.453Z,23.20
2019-03-30T23:25:45.677Z,20.60
2019-03-30T23:27:48.194Z,19.33
2019-03-30T23:29:50.682Z,22.20
2019-03-30T23:31:52.904Z,25.00
2019-03-30T23:33:55.116Z,22.03
2019-03-30T23:35:57.329Z,24.90
2019-03-30T23:37:59.558Z,24.63
2019-03-30T23:40:01.781Z,26.60
2019-03-30T23:42:04.269Z,26.60
2019-03-30T23:44:06.485Z,23.33
2019-03-30T23:46:09.121Z,28.20
2019-03-30T23:48:11.354Z,28.80
2019-03-30T23:50:13.575Z,29.87
2019-03-30T23:52:15.803Z,28.00
2019-03-30T23:54:18.021Z,32.33
2019-03-30T23:56:21.653Z,31.20
2019-03-30T23:58:23.873Z,32.33
